createdAt,value
2022-10-25T00:00:58.160Z,99545.25
2022-10-25T00:03:26.483Z,99549.06
2022-10-25T00:05:54.790Z,99544.00
2022-10-25T00:08:23.173Z,99547.84
2022-10-25T00:10:51.475Z,99554.75
2022-10-25T00:13:19.800Z,99555.78
2022-10-25T00:15:48.094Z,99556.31
2022-10-25T00:18:16.389Z,99548.94
2022-10-25T00:20:44.703Z,99553.28
2022-10-25T00:23:13.017Z,99557.38
2022-10-25T00:25:41.561Z,99556.38
2022-10-25T00:28:09.958Z,99552.84
2022-10-25T00:30:38.548Z,99563.31
2022-10-25T00:33:06.862Z,99559.78
2022-10-25T00:35:38.038Z,99566.69
2022-10-25T00:38:06.360Z,99575.63
2022-10-25T00:40:34.682Z,99582.78
2022-10-25T00:43:02.997Z,99584.06
2022-10-25T00:45:31.351Z,99596.84
2022-10-25T00:48:05.429Z,99592.06
2022-10-25T00:50:42.142Z,99597.69
2022-10-25T00:53:15.043Z,99596.44
2022-10-25T00:55:48.425Z,99596.44
2022-10-25T00:58:21.178Z,99589.09
2022-10-25T01:00:50.116Z,99603.13
2022-10-25T01:03:21.925Z,99605.44
2022-10-25T01:05:51.398Z,99609.03
2022-10-25T01:08:22.740Z,99607.50
2022-10-25T01:10:51.504Z,99609.84
2022-10-25T01:13:20.126Z,99612.44
2022-10-25T01:16:26.820Z,99613.44
2022-10-25T01:18:55.095Z,99612.44
2022-10-25T01:21:32.048Z,99617.31
2022-10-25T01:24:34.532Z,99613.50
2022-10-25T01:27:32.311Z,99614.53
2022-10-25T01:30:22.317Z,99630.84
2022-10-25T01:33:02.311Z,99626.03
2022-10-25T01:35:44.180Z,99635.97
2022-10-25T01:38:19.268Z,99632.66
2022-10-25T01:41:05.523Z,99634.97
2022-10-25T01:44:07.937Z,99642.91
2022-10-25T01:46:59.772Z,99649.53
2022-10-25T01:49:34.840Z,99656.41
2022-10-25T01:52:05.048Z,99654.84
2022-10-25T01:54:34.130Z,99652.81
2022-10-25T01:57:26.744Z,99642.34
2022-10-25T02:00:10.417Z,99643.34
2022-10-25T02:02:48.062Z,99649.22
2022-10-25T02:05:59.689Z,99647.41
2022-10-25T02:08:48.063Z,99652.78
2022-10-25T02:11:31.209Z,99651.72
2022-10-25T02:14:11.427Z,99655.78
2022-10-25T02:16:44.825Z,99650.88
2022-10-25T02:19:17.984Z,99649.31
2022-10-25T02:21:49.176Z,99652.59
2022-10-25T02:24:22.056Z,99653.59
2022-10-25T02:26:52.039Z,99655.34
2022-10-25T02:29:22.562Z,99659.16
2022-10-25T02:31:51.706Z,99658.31
2022-10-25T02:34:20.988Z,99651.88
2022-10-25T02:36:56.550Z,99654.91
2022-10-25T02:39:29.188Z,99662.03
2022-10-25T02:41:59.798Z,99656.59
2022-10-25T02:44:28.138Z,99648.34
2022-10-25T02:46:56.513Z,99647.28
2022-10-25T02:49:25.158Z,99656.69
2022-10-25T02:51:53.591Z,99655.59
2022-10-25T02:54:22.114Z,99655.00
2022-10-25T02:56:53.317Z,99649.09
2022-10-25T02:59:22.259Z,99644.47
2022-10-25T03:01:50.706Z,99641.34
2022-10-25T03:04:19.198Z,99634.44
2022-10-25T03:06:47.533Z,99626.97
2022-10-25T03:09:15.856Z,99629.78
2022-10-25T03:11:44.201Z,99621.34
2022-10-25T03:14:12.523Z,99625.69
2022-10-25T03:16:40.920Z,99622.88
2022-10-25T03:19:09.672Z,99624.69
2022-10-25T03:21:40.053Z,99616.25
2022-10-25T03:24:10.448Z,99608.84
2022-10-25T03:26:38.862Z,99603.75
2022-10-25T03:29:07.246Z,99605.78
2022-10-25T03:31:35.638Z,99607.31
2022-10-25T03:34:04.010Z,99617.53
2022-10-25T03:36:32.409Z,99614.19
2022-10-25T03:39:00.725Z,99603.38
2022-10-25T03:41:29.109Z,99603.84
2022-10-25T03:43:57.432Z,99598.63
2022-10-25T03:46:25.754Z,99604.16
2022-10-25T03:48:54.063Z,99600.66
2022-10-25T03:51:22.377Z,99592.63
2022-10-25T03:53:51.589Z,99592.47
2022-10-25T03:56:19.861Z,99588.53
2022-10-25T03:58:48.185Z,99574.88
2022-10-25T04:01:16.630Z,99572.47
2022-10-25T04:03:46.234Z,99567.72
2022-10-25T04:06:14.597Z,99572.97
2022-10-25T04:08:42.921Z,99570.06
2022-10-25T04:11:11.226Z,99564.56
2022-10-25T04:13:39.545Z,99558.81
2022-10-25T04:16:09.308Z,99560.28
2022-10-25T04:18:37.766Z,99555.06
2022-10-25T04:21:06.220Z,99553.78
2022-10-25T04:23:34.605Z,99540.84
2022-10-25T04:26:03.238Z,99531.34
2022-10-25T04:28:31.632Z,99525.16
2022-10-25T04:31:00.005Z,99522.75
2022-10-25T04:33:28.320Z,99522.44
2022-10-25T04:35:58.326Z,99517.69
2022-10-25T04:38:26.727Z,99517.59
2022-10-25T04:40:59.192Z,99516.16
2022-10-25T04:43:29.291Z,99519.66
2022-10-25T04:46:02.345Z,99509.03
2022-10-25T04:48:31.121Z,99500.66
2022-10-25T04:51:02.822Z,99506.94
2022-10-25T04:53:31.363Z,99496.84
2022-10-25T04:56:04.446Z,99490.09
2022-10-25T04:58:33.649Z,99493.59
2022-10-25T05:01:05.381Z,99488.03
2022-10-25T05:03:34.555Z,99491.50
2022-10-25T05:06:13.774Z,99473.66
2022-10-25T05:08:44.976Z,99476.59
2022-10-25T05:11:14.969Z,99470.03
2022-10-25T05:13:43.944Z,99471.03
2022-10-25T05:16:21.183Z,99468.06
2022-10-25T05:18:50.257Z,99460.75
2022-10-25T05:21:20.182Z,99457.41
2022-10-25T05:23:48.663Z,99448.03
2022-10-25T05:26:22.156Z,99452.03
2022-10-25T05:28:52.947Z,99445.69
2022-10-25T05:31:22.806Z,99450.66
2022-10-25T05:33:53.684Z,99448.78
2022-10-25T05:36:22.717Z,99444.31
2022-10-25T05:38:51.313Z,99434.19
2022-10-25T05:41:20.546Z,99432.53
2022-10-25T05:43:49.242Z,99429.13
2022-10-25T05:46:23.102Z,99430.44
2022-10-25T05:48:52.874Z,99423.81
2022-10-25T05:51:37.619Z,99422.72
2022-10-25T05:54:16.797Z,99413.63
2022-10-25T05:56:45.351Z,99416.22
2022-10-25T05:59:15.577Z,99406.56
2022-10-25T06:01:46.080Z,99405.59
2022-10-25T06:04:15.328Z,99402.34
2022-10-25T06:06:45.787Z,99401.19
2022-10-25T06:09:14.737Z,99394.72
2022-10-25T06:11:43.203Z,99390.56
2022-10-25T06:14:12.237Z,99394.16
2022-10-25T06:16:40.874Z,99391.34
2022-10-25T06:19:10.344Z,99379.06
2022-10-25T06:21:38.905Z,99374.72
2022-10-25T06:24:07.581Z,99379.06
2022-10-25T06:26:36.226Z,99373.41
2022-10-25T06:29:06.229Z,99369.25
2022-10-25T06:31:35.072Z,99365.88
2022-10-25T06:34:04.106Z,99364.56
2022-10-25T06:36:32.914Z,99365.44
2022-10-25T06:39:06.746Z,99356.44
2022-10-25T06:41:37.842Z,99357.50
2022-10-25T06:44:07.814Z,99354.06
2022-10-25T06:47:11.615Z,99353.06
2022-10-25T06:49:29.211Z,99351.75
2022-10-25T06:51:57.536Z,99344.59
2022-10-25T06:54:27.649Z,99337.63
2022-10-25T06:56:56.033Z,99341.97
2022-10-25T06:59:24.618Z,99343.72
2022-10-25T07:01:53.407Z,99336.00
2022-10-25T07:04:22.117Z,99339.78
2022-10-25T07:06:53.001Z,99333.81
2022-10-25T07:09:23.932Z,99329.66
2022-10-25T07:11:52.449Z,99327.25
2022-10-25T07:14:20.748Z,99329.72
2022-10-25T07:16:49.086Z,99326.34
2022-10-25T07:19:17.427Z,99318.81
2022-10-25T07:21:46.154Z,99316.53
2022-10-25T07:24:14.697Z,99315.00
2022-10-25T07:26:43.072Z,99313.84
2022-10-25T07:29:11.714Z,99309.50
2022-10-25T07:31:45.235Z,99302.34
2022-10-25T07:34:15.708Z,99310.06
2022-10-25T07:36:45.180Z,99302.13
2022-10-25T07:39:13.805Z,99294.22
2022-10-25T07:41:42.169Z,99298.56
2022-10-25T07:44:16.091Z,99290.63
2022-10-25T07:46:45.952Z,99294.72
2022-10-25T07:49:15.230Z,99289.06
2022-10-25T07:51:43.661Z,99294.97
2022-10-25T07:54:12.025Z,99295.91
2022-10-25T07:56:40.401Z,99284.25
2022-10-25T07:59:08.702Z,99281.97
2022-10-25T08:01:37.522Z,99268.19
2022-10-25T08:04:06.191Z,99268.00
2022-10-25T08:06:39.112Z,99262.66
2022-10-25T08:09:14.857Z,99259.63
2022-10-25T08:11:48.773Z,99255.09
2022-10-25T08:14:17.283Z,99259.19
2022-10-25T08:16:45.633Z,99256.94
2022-10-25T08:19:13.984Z,99256.72
2022-10-25T08:21:42.332Z,99262.38
2022-10-25T08:24:12.195Z,99252.38
2022-10-25T08:26:40.517Z,99251.06
2022-10-25T08:29:08.894Z,99253.34
2022-10-25T08:31:37.645Z,99249.97
2022-10-25T08:34:06.347Z,99252.25
2022-10-25T08:36:34.766Z,99251.28
2022-10-25T08:39:03.147Z,99246.94
2022-10-25T08:41:40.130Z,99253.13
2022-10-25T08:44:11.490Z,99257.06
2022-10-25T08:47:02.954Z,99245.78
2022-10-25T08:49:48.519Z,99240.31
2022-10-25T08:52:23.498Z,99244.47
2022-10-25T08:54:52.121Z,99249.91
2022-10-25T08:57:26.362Z,99252.53
2022-10-25T08:59:58.306Z,99244.97
2022-10-25T09:02:44.489Z,99243.78
2022-10-25T09:05:30.084Z,99244.88
2022-10-25T09:08:10.293Z,99244.47
2022-10-25T09:11:05.784Z,99238.41
2022-10-25T09:13:56.437Z,99247.78
2022-10-25T09:16:30.768Z,99245.13
2022-10-25T09:18:59.152Z,99240.56
2022-10-25T09:22:11.983Z,99244.72
2022-10-25T09:24:48.335Z,99245.97
2022-10-25T09:27:31.498Z,99251.44
2022-10-25T09:30:10.027Z,99254.06
2022-10-25T09:32:46.192Z,99263.63
2022-10-25T09:35:24.148Z,99266.78
2022-10-25T09:37:59.886Z,99262.22
2022-10-25T09:40:47.599Z,99259.00
2022-10-25T09:43:21.575Z,99259.34
2022-10-25T09:45:55.680Z,99257.59
2022-10-25T09:48:43.787Z,99262.81
2022-10-25T09:51:15.202Z,99257.50
2022-10-25T09:53:46.382Z,99266.88
2022-10-25T09:56:14.796Z,99265.91
2022-10-25T09:58:51.217Z,99258.31
2022-10-25T10:01:27.037Z,99269.97
2022-10-25T10:04:05.745Z,99272.13
2022-10-25T10:06:39.176Z,99279.97
2022-10-25T10:09:15.047Z,99275.00
2022-10-25T10:11:45.729Z,99279.97
2022-10-25T10:14:44.438Z,99283.66
2022-10-25T10:17:18.949Z,99288.66
2022-10-25T10:20:14.102Z,99290.84
2022-10-25T10:22:50.744Z,99290.94
2022-10-25T10:25:27.009Z,99292.59
2022-10-25T10:27:58.821Z,99290.63
2022-10-25T10:30:30.433Z,99302.22
2022-10-25T10:33:06.316Z,99290.28
2022-10-25T10:35:37.047Z,99304.50
2022-10-25T10:38:34.756Z,99296.44
2022-10-25T10:41:25.539Z,99297.81
2022-10-25T10:44:10.676Z,99308.44
2022-10-25T10:46:47.053Z,99315.50
2022-10-25T10:49:17.400Z,99318.41
2022-10-25T10:51:47.474Z,99315.47
2022-10-25T10:54:24.859Z,99321.94
2022-10-25T10:57:08.208Z,99324.63
2022-10-25T10:59:45.326Z,99326.78
2022-10-25T11:02:21.956Z,99330.97
2022-10-25T11:04:52.598Z,99335.13
2022-10-25T11:07:32.306Z,99348.00
2022-10-25T11:10:18.922Z,99343.75
2022-10-25T11:12:47.410Z,99344.59
2022-10-25T11:15:17.420Z,99339.81
2022-10-25T11:17:55.190Z,99342.69
2022-10-25T11:20:31.518Z,99345.59
2022-10-25T11:23:14.049Z,99345.13
2022-10-25T11:26:12.315Z,99357.47
2022-10-25T11:28:52.077Z,99351.59
2022-10-25T11:31:44.563Z,99357.00
2022-10-25T11:34:41.003Z,99359.81
2022-10-25T11:37:33.015Z,99359.06
2022-10-25T11:40:16.719Z,99358.31
2022-10-25T11:43:00.130Z,99358.31
2022-10-25T11:45:51.590Z,99366.75
2022-10-25T11:48:37.993Z,99361.13
2022-10-25T11:51:11.947Z,99367.28
2022-10-25T11:53:52.036Z,99377.03
2022-10-25T11:56:44.945Z,99371.91
2022-10-25T11:59:26.383Z,99382.44
2022-10-25T12:02:34.588Z,99384.22
2022-10-25T12:05:17.563Z,99387.56
2022-10-25T12:08:10.585Z,99388.59
2022-10-25T12:10:47.736Z,99400.16
2022-10-25T12:13:32.283Z,99399.16
2022-10-25T12:16:01.463Z,99407.91
2022-10-25T12:18:48.727Z,99408.97
2022-10-25T12:21:23.448Z,99405.94
2022-10-25T12:23:55.175Z,99410.56
2022-10-25T12:26:31.711Z,99415.97
2022-10-25T12:29:04.062Z,99410.84
2022-10-25T12:31:38.925Z,99409.06
2022-10-25T12:34:27.426Z,99402.44
2022-10-25T12:36:59.270Z,99407.84
2022-10-25T12:39:40.706Z,99405.56
2022-10-25T12:42:24.053Z,99404.56
2022-10-25T12:45:04.607Z,99413.53
2022-10-25T12:47:58.022Z,99418.16
2022-10-25T12:51:03.558Z,99417.16
2022-10-25T12:54:27.254Z,99421.56
2022-10-25T12:57:10.479Z,99438.22
2022-10-25T12:59:56.794Z,99436.69
2022-10-25T13:02:56.103Z,99443.34
2022-10-25T13:05:45.746Z,99448.97
2022-10-25T13:08:20.993Z,99454.34
2022-10-25T13:10:58.429Z,99454.88
2022-10-25T13:13:29.890Z,99469.47
2022-10-25T13:16:01.070Z,99472.03
2022-10-25T13:18:45.758Z,99466.19
2022-10-25T13:21:38.418Z,99474.38
2022-10-25T13:24:09.772Z,99478.22
2022-10-25T13:27:16.285Z,99473.63
2022-10-25T13:30:24.223Z,99481.84
2022-10-25T13:33:28.169Z,99486.47
2022-10-25T13:36:01.288Z,99484.16
2022-10-25T13:38:39.385Z,99491.84
2022-10-25T13:41:21.152Z,99485.47
2022-10-25T13:44:00.573Z,99494.41
2022-10-25T13:46:42.199Z,99497.72
2022-10-25T13:49:44.656Z,99495.97
2022-10-25T13:52:28.423Z,99502.88
2022-10-25T13:54:58.334Z,99499.56
2022-10-25T13:57:52.537Z,99510.56
2022-10-25T14:00:33.250Z,99502.44
2022-10-25T14:03:10.813Z,99502.72
2022-10-25T14:05:57.667Z,99504.50
2022-10-25T14:08:25.964Z,99500.69
2022-10-25T14:10:55.636Z,99500.97
2022-10-25T14:14:01.799Z,99504.56
2022-10-25T14:16:55.659Z,99506.84
2022-10-25T14:19:38.444Z,99504.56
2022-10-25T14:22:19.935Z,99501.00
2022-10-25T14:24:54.105Z,99507.66
2022-10-25T14:27:37.542Z,99506.13
2022-10-25T14:30:28.784Z,99515.84
2022-10-25T14:33:02.835Z,99513.53
2022-10-25T14:36:11.359Z,99518.41
2022-10-25T14:38:51.258Z,99518.91
2022-10-25T14:41:26.178Z,99518.69
2022-10-25T14:43:55.438Z,99522.00
2022-10-25T14:46:26.204Z,99516.16
2022-10-25T14:49:03.063Z,99513.34
2022-10-25T14:51:31.367Z,99506.72
2022-10-25T14:54:06.838Z,99508.75
2022-10-25T14:56:47.598Z,99509.75
2022-10-25T14:59:44.578Z,99508.47
2022-10-25T15:02:23.007Z,99509.00
2022-10-25T15:04:54.906Z,99508.47
2022-10-25T15:07:24.509Z,99507.72
2022-10-25T15:09:54.524Z,99502.09
2022-10-25T15:12:27.855Z,99498.00
2022-10-25T15:14:58.447Z,99498.81
2022-10-25T15:17:30.579Z,99496.75
2022-10-25T15:20:31.677Z,99487.81
2022-10-25T15:23:06.934Z,99485.75
2022-10-25T15:25:39.886Z,99484.47
2022-10-25T15:28:13.763Z,99494.94
2022-10-25T15:30:45.904Z,99487.03
2022-10-25T15:33:20.935Z,99493.44
2022-10-25T15:35:56.424Z,99491.91
2022-10-25T15:38:42.026Z,99494.72
2022-10-25T15:41:16.631Z,99493.19
2022-10-25T15:43:45.355Z,99496.47
2022-10-25T15:46:34.249Z,99500.56
2022-10-25T15:49:06.088Z,99496.25
2022-10-25T15:51:37.612Z,99491.13
2022-10-25T15:54:06.049Z,99500.06
2022-10-25T15:56:34.761Z,99489.34
2022-10-25T15:59:03.427Z,99500.56
2022-10-25T16:01:31.937Z,99504.66
2022-10-25T16:04:00.392Z,99504.44
2022-10-25T16:06:28.770Z,99510.56
2022-10-25T16:08:57.094Z,99508.50
2022-10-25T16:11:25.713Z,99507.75
2022-10-25T16:13:54.867Z,99505.47
2022-10-25T16:16:45.862Z,99512.59
2022-10-25T16:19:18.851Z,99515.94
2022-10-25T16:21:47.786Z,99515.16
2022-10-25T16:24:16.152Z,99517.22
2022-10-25T16:26:49.642Z,99513.66
2022-10-25T16:29:20.854Z,99508.53
2022-10-25T16:31:49.360Z,99515.44
2022-10-25T16:34:18.801Z,99511.09
2022-10-25T16:36:48.240Z,99513.16
2022-10-25T16:39:17.220Z,99515.72
2022-10-25T16:41:47.411Z,99526.19
2022-10-25T16:44:18.495Z,99524.66
2022-10-25T16:46:47.992Z,99523.66
2022-10-25T16:49:16.621Z,99518.56
2022-10-25T16:51:45.238Z,99520.59
2022-10-25T16:54:15.616Z,99526.72
2022-10-25T16:56:44.111Z,99524.44
2022-10-25T16:59:12.446Z,99522.88
2022-10-25T17:01:44.610Z,99526.97
2022-10-25T17:04:14.471Z,99523.91
2022-10-25T17:06:43.021Z,99518.81
2022-10-25T17:09:12.428Z,99525.19
2022-10-25T17:11:41.403Z,99522.91
2022-10-25T17:14:13.766Z,99523.41
2022-10-25T17:16:44.690Z,99531.84
2022-10-25T17:19:14.043Z,99536.94
2022-10-25T17:21:42.330Z,99528.50
2022-10-25T17:24:10.759Z,99524.94
2022-10-25T17:26:39.963Z,99527.25
2022-10-25T17:29:08.277Z,99525.19
2022-10-25T17:31:37.413Z,99518.28
2022-10-25T17:34:06.116Z,99523.91
2022-10-25T17:36:34.768Z,99520.34
2022-10-25T17:39:03.144Z,99519.56
2022-10-25T17:41:31.478Z,99522.38
2022-10-25T17:43:59.833Z,99520.09
2022-10-25T17:46:30.559Z,99512.19
2022-10-25T17:49:04.351Z,99515.50
2022-10-25T17:51:34.703Z,99515.50
2022-10-25T17:54:03.173Z,99510.94
2022-10-25T17:59:03.046Z,99507.63
2022-10-25T18:01:33.639Z,99503.28
2022-10-25T18:04:02.441Z,99500.25
2022-10-25T18:06:31.865Z,99500.75
2022-10-25T18:09:01.003Z,99494.91
2022-10-25T18:11:29.597Z,99496.41
2022-10-25T18:14:02.788Z,99492.59
2022-10-25T18:16:32.314Z,99486.75
2022-10-25T18:19:03.783Z,99474.47
2022-10-25T18:21:33.748Z,99481.38
2022-10-25T18:24:05.939Z,99474.75
2022-10-25T18:26:35.494Z,99482.91
2022-10-25T18:29:03.916Z,99479.06
2022-10-25T18:31:32.444Z,99471.16
2022-10-25T18:34:04.320Z,99460.44
2022-10-25T18:36:33.620Z,99467.09
2022-10-25T18:39:02.131Z,99454.09
2022-10-25T18:41:32.968Z,99453.84
2022-10-25T18:44:03.329Z,99445.94
2022-10-25T18:46:33.511Z,99442.91
2022-10-25T18:49:02.016Z,99440.59
2022-10-25T18:51:31.122Z,99426.28
2022-10-25T18:54:01.910Z,99432.44
2022-10-25T18:56:31.813Z,99432.19
2022-10-25T18:59:00.774Z,99417.91
2022-10-25T19:01:33.365Z,99428.34
2022-10-25T19:04:04.640Z,99422.50
2022-10-25T19:06:34.164Z,99418.69
2022-10-25T19:09:03.909Z,99420.72
2022-10-25T19:11:34.282Z,99418.44
2022-10-25T19:14:04.070Z,99406.19
2022-10-25T19:16:32.429Z,99404.69
2022-10-25T19:19:05.510Z,99408.25
2022-10-25T19:21:33.928Z,99403.91
2022-10-25T19:24:02.570Z,99403.66
2022-10-25T19:26:30.942Z,99402.91
2022-10-25T19:29:01.705Z,99397.81
2022-10-25T19:31:30.659Z,99399.84
2022-10-25T19:34:04.161Z,99397.03
2022-10-25T19:36:33.168Z,99396.78
2022-10-25T19:39:02.388Z,99394.00
2022-10-25T19:41:30.783Z,99396.03
2022-10-25T19:43:59.691Z,99390.16
2022-10-25T19:46:28.069Z,99389.91
2022-10-25T19:48:57.255Z,99398.56
2022-10-25T19:51:25.677Z,99399.84
2022-10-25T19:53:54.201Z,99397.56
2022-10-25T19:56:24.304Z,99398.06
2022-10-25T19:58:52.658Z,99390.16
2022-10-25T20:01:29.875Z,99386.59
2022-10-25T20:03:59.540Z,99387.13
2022-10-25T20:06:32.872Z,99388.41
2022-10-25T20:09:02.531Z,99387.63
2022-10-25T20:11:32.300Z,99388.16
2022-10-25T20:14:02.894Z,99387.38
2022-10-25T20:16:31.820Z,99386.63
2022-10-25T20:19:02.163Z,99393.00
2022-10-25T20:21:36.722Z,99392.22
2022-10-25T20:24:11.031Z,99393.75
2022-10-25T20:26:42.138Z,99390.19
2022-10-25T20:29:20.296Z,99388.91
2022-10-25T20:31:53.736Z,99387.63
2022-10-25T20:34:22.266Z,99380.75
2022-10-25T20:36:51.014Z,99379.97
2022-10-25T20:39:19.413Z,99374.38
2022-10-25T20:41:47.820Z,99378.47
2022-10-25T20:44:16.198Z,99371.31
2022-10-25T20:46:44.861Z,99369.78
2022-10-25T20:49:13.412Z,99373.88
2022-10-25T20:51:41.796Z,99360.63
2022-10-25T20:54:10.442Z,99364.19
2022-10-25T20:56:40.255Z,99369.03
2022-10-25T20:59:08.720Z,99364.72
2022-10-25T21:01:37.326Z,99373.13
2022-10-25T21:04:06.216Z,99367.50
2022-10-25T21:06:34.565Z,99368.78
2022-10-25T21:09:03.025Z,99373.38
2022-10-25T21:11:31.410Z,99373.13
2022-10-25T21:13:59.927Z,99365.72
2022-10-25T21:16:28.376Z,99370.56
2022-10-25T21:18:56.734Z,99364.72
2022-10-25T21:21:25.054Z,99370.81
2022-10-25T21:23:57.115Z,99381.28
2022-10-25T21:26:25.871Z,99374.91
2022-10-25T21:28:54.193Z,99386.13
2022-10-25T21:31:22.558Z,99383.31
2022-10-25T21:33:54.063Z,99385.06
2022-10-25T21:36:24.493Z,99376.41
2022-10-25T21:38:53.017Z,99385.34
2022-10-25T21:41:27.611Z,99378.44
2022-10-25T21:43:57.178Z,99375.38
2022-10-25T21:46:27.730Z,99377.16
2022-10-25T21:48:56.196Z,99381.25
2022-10-25T21:51:25.948Z,99381.75
2022-10-25T21:53:55.757Z,99388.88
2022-10-25T21:56:24.878Z,99388.13
2022-10-25T21:58:54.433Z,99382.28
2022-10-25T22:01:25.402Z,99377.19
2022-10-25T22:03:54.158Z,99377.69
2022-10-25T22:06:24.404Z,99384.31
2022-10-25T22:08:54.257Z,99385.59
2022-10-25T22:11:31.536Z,99389.66
2022-10-25T22:14:05.248Z,99391.72
2022-10-25T22:16:35.370Z,99401.13
2022-10-25T22:21:38.413Z,99401.66
2022-10-25T22:24:11.861Z,99401.34
2022-10-25T22:26:43.072Z,99400.59
2022-10-25T22:29:14.080Z,99403.91
2022-10-25T22:31:42.424Z,99410.53
2022-10-25T22:34:11.423Z,99420.22
2022-10-25T22:36:42.224Z,99419.19
2022-10-25T22:39:10.825Z,99426.84
2022-10-25T22:41:39.201Z,99423.00
2022-10-25T22:44:07.622Z,99428.34
2022-10-25T22:46:37.305Z,99438.53
2022-10-25T22:49:08.532Z,99441.84
2022-10-25T22:51:38.222Z,99446.69
2022-10-25T22:54:07.026Z,99447.97
2022-10-25T22:56:35.354Z,99446.44
2022-10-25T22:59:05.813Z,99447.19
2022-10-25T23:01:38.745Z,99450.50
2022-10-25T23:04:11.366Z,99460.94
2022-10-25T23:06:41.641Z,99456.63
2022-10-25T23:09:11.493Z,99456.34
2022-10-25T23:11:41.768Z,99462.72
2022-10-25T23:14:14.794Z,99458.38
2022-10-25T23:16:46.193Z,99452.50
2022-10-25T23:19:14.576Z,99470.56
2022-10-25T23:21:42.898Z,99473.38
2022-10-25T23:24:11.622Z,99471.09
2022-10-25T23:26:40.546Z,99468.28
2022-10-25T23:29:09.220Z,99473.13
2022-10-25T23:31:38.237Z,99475.91
2022-10-25T23:34:06.572Z,99482.78
2022-10-25T23:36:38.262Z,99493.22
2022-10-25T23:39:08.515Z,99495.25
2022-10-25T23:41:37.568Z,99496.03
2022-10-25T23:44:06.117Z,99498.31
2022-10-25T23:46:34.428Z,99501.38
2022-10-25T23:49:02.722Z,99508.81
2022-10-25T23:51:31.073Z,99519.75
2022-10-25T23:53:59.379Z,99521.28
2022-10-25T23:56:27.845Z,99523.09
2022-10-25T23:58:56.234Z,99534.28
